createdAt,value
2019-02-17T00:01:51.887Z,39.87
2019-02-17T00:04:56.697Z,42.30
2019-02-17T00:08:01.581Z,39.80
2019-02-17T00:11:06.258Z,39.30
2019-02-17T00:14:11.118Z,38.77
2019-02-17T00:17:15.998Z,39.00
2019-02-17T00:20:20.848Z,36.17
2019-02-17T00:23:25.666Z,36.20
2019-02-17T00:26:30.512Z,36.23
2019-02-17T00:29:35.443Z,35.80
2019-02-17T00:32:40.368Z,35.13
2019-02-17T00:35:45.095Z,33.73
2019-02-17T00:38:49.953Z,35.03
2019-02-17T00:41:54.601Z,32.67
2019-02-17T00:44:59.503Z,31.70
2019-02-17T00:48:04.366Z,30.93
2019-02-17T00:51:09.142Z,31.23
2019-02-17T00:54:13.926Z,30.00
2019-02-17T00:57:18.602Z,30.40
2019-02-17T01:00:23.547Z,27.97
2019-02-17T01:03:28.375Z,28.27
2019-02-17T01:06:33.308Z,28.53
2019-02-17T01:09:38.156Z,27.97
2019-02-17T01:12:42.663Z,27.10
2019-02-17T01:15:47.598Z,27.20
2019-02-17T01:18:52.450Z,26.70
2019-02-17T01:21:57.397Z,25.70
2019-02-17T01:25:02.192Z,25.40
2019-02-17T01:28:06.952Z,25.07
2019-02-17T01:31:11.729Z,24.20
2019-02-17T01:34:16.700Z,24.43
2019-02-17T01:37:21.624Z,24.00
2019-02-17T01:40:26.587Z,23.20
2019-02-17T01:43:31.482Z,24.10
2019-02-17T01:46:38.394Z,22.53
2019-02-17T01:49:42.704Z,22.20
2019-02-17T01:52:47.506Z,22.80
2019-02-17T01:55:52.122Z,20.73
2019-02-17T01:58:56.973Z,20.30
2019-02-17T02:02:01.953Z,22.73
2019-02-17T02:05:07.060Z,20.17
2019-02-17T02:08:11.963Z,20.03
2019-02-17T02:11:19.439Z,21.00
2019-02-17T02:14:24.399Z,19.73
2019-02-17T02:17:29.123Z,18.67
2019-02-17T02:20:33.946Z,19.33
2019-02-17T02:23:38.782Z,18.87
2019-02-17T02:26:45.676Z,19.27
2019-02-17T02:29:50.471Z,18.60
2019-02-17T02:32:55.331Z,18.07
2019-02-17T02:36:00.152Z,18.63
2019-02-17T02:39:06.950Z,18.30
2019-02-17T02:42:11.432Z,17.00
2019-02-17T02:45:16.272Z,17.90
2019-02-17T02:48:21.300Z,16.80
2019-02-17T02:51:26.032Z,17.37
2019-02-17T02:54:30.852Z,17.50
2019-02-17T02:57:35.599Z,16.97
2019-02-17T03:00:40.423Z,16.47
2019-02-17T03:03:46.220Z,15.87
2019-02-17T03:06:56.478Z,15.53
2019-02-17T03:10:01.244Z,15.93
2019-02-17T03:13:06.204Z,16.80
2019-02-17T03:16:11.125Z,15.43
2019-02-17T03:19:16.070Z,14.80
2019-02-17T03:22:20.768Z,16.27
2019-02-17T03:25:25.627Z,15.00
2019-02-17T03:28:30.439Z,15.57
2019-02-17T03:31:35.380Z,14.87
2019-02-17T03:34:40.209Z,14.60
2019-02-17T03:37:45.256Z,14.60
2019-02-17T03:40:50.066Z,14.10
2019-02-17T03:43:54.713Z,14.33
2019-02-17T03:46:59.624Z,14.17
2019-02-17T03:50:04.690Z,14.13
2019-02-17T03:53:09.483Z,13.53
2019-02-17T03:56:14.337Z,13.70
2019-02-17T03:59:19.047Z,14.00
2019-02-17T04:02:24.083Z,14.23
2019-02-17T04:05:29.018Z,12.40
2019-02-17T04:08:33.865Z,13.40
2019-02-17T04:11:38.820Z,12.43
2019-02-17T04:14:43.418Z,13.20
2019-02-17T04:17:48.228Z,13.17
2019-02-17T04:20:53.283Z,11.83
2019-02-17T04:23:58.093Z,13.50
2019-02-17T04:27:02.969Z,13.60
2019-02-17T04:30:07.520Z,15.07
2019-02-17T04:33:12.502Z,14.50
2019-02-17T04:36:17.323Z,14.33
2019-02-17T04:39:22.167Z,14.57
2019-02-17T04:42:26.908Z,16.90
2019-02-17T04:45:32.547Z,15.73
2019-02-17T04:48:37.263Z,17.37
2019-02-17T04:51:41.821Z,17.50
2019-02-17T04:54:46.610Z,18.47
2019-02-17T04:57:51.557Z,20.03
2019-02-17T05:00:56.269Z,20.10
2019-02-17T05:04:01.241Z,22.30
2019-02-17T05:07:06.061Z,22.57
2019-02-17T05:10:10.883Z,23.80
2019-02-17T05:13:15.679Z,23.97
2019-02-17T05:16:20.477Z,29.60
2019-02-17T05:19:25.365Z,29.90
2019-02-17T05:22:30.309Z,27.30
2019-02-17T05:25:35.208Z,30.50
2019-02-17T05:28:39.875Z,28.17
2019-02-17T05:31:44.687Z,32.30
2019-02-17T05:34:49.623Z,32.40
2019-02-17T05:37:54.440Z,31.93
2019-02-17T05:40:59.288Z,33.70
2019-02-17T05:44:04.099Z,32.33
2019-02-17T05:47:08.833Z,30.83
2019-02-17T05:50:13.634Z,29.37
2019-02-17T05:53:18.405Z,30.10
2019-02-17T05:56:23.264Z,29.63
2019-02-17T05:59:27.887Z,29.07
2019-02-17T06:02:33.994Z,29.00
2019-02-17T06:05:38.864Z,27.73
2019-02-17T06:08:43.540Z,25.43
2019-02-17T06:11:48.429Z,26.60
2019-02-17T06:14:53.314Z,21.70
2019-02-17T06:17:58.167Z,21.10
2019-02-17T06:21:02.968Z,20.90
2019-02-17T06:24:07.747Z,20.60
2019-02-17T06:27:12.665Z,20.33
2019-02-17T06:30:17.479Z,21.13
2019-02-17T06:33:22.293Z,20.40
2019-02-17T06:36:27.161Z,20.57
2019-02-17T06:39:33.448Z,17.90
2019-02-17T06:42:38.342Z,18.90
2019-02-17T06:45:44.362Z,19.27
2019-02-17T06:48:49.048Z,18.77
2019-02-17T06:51:53.841Z,19.83
2019-02-17T06:55:20.232Z,20.97
2019-02-17T06:58:25.108Z,19.90
2019-02-17T07:01:29.946Z,19.73
2019-02-17T07:04:44.589Z,19.20
2019-02-17T07:07:49.521Z,19.90
2019-02-17T07:10:54.354Z,17.67
2019-02-17T07:13:59.276Z,17.90
2019-02-17T07:17:03.732Z,17.93
2019-02-17T07:20:09.762Z,17.17
2019-02-17T07:23:15.261Z,17.97
2019-02-17T07:26:20.249Z,16.67
2019-02-17T07:29:24.997Z,17.33
2019-02-17T07:32:29.692Z,16.53
2019-02-17T07:35:34.574Z,16.73
2019-02-17T07:38:39.353Z,17.63
2019-02-17T07:41:44.196Z,16.93
2019-02-17T07:44:49.032Z,16.30
2019-02-17T07:47:55.225Z,17.03
2019-02-17T07:51:00.086Z,16.10
2019-02-17T07:54:07.080Z,16.50
2019-02-17T07:57:11.859Z,15.70
2019-02-17T08:00:16.537Z,16.23
2019-02-17T08:03:21.394Z,16.53
2019-02-17T08:06:25.920Z,17.37
2019-02-17T08:09:30.968Z,16.00
2019-02-17T08:12:35.766Z,16.63
2019-02-17T08:15:40.763Z,16.10
2019-02-17T08:18:45.642Z,15.10
2019-02-17T08:21:50.314Z,14.97
2019-02-17T08:24:57.431Z,15.50
2019-02-17T08:28:02.326Z,16.10
2019-02-17T08:31:07.109Z,15.17
2019-02-17T08:34:11.837Z,14.80
2019-02-17T08:37:16.762Z,15.00
2019-02-17T08:40:21.523Z,16.47
2019-02-17T08:43:26.217Z,15.50
2019-02-17T08:46:30.957Z,29.60
2019-02-17T08:49:35.878Z,21.47
2019-02-17T08:52:40.748Z,20.57
2019-02-17T08:55:45.606Z,20.80
2019-02-17T08:58:50.378Z,20.00
2019-02-17T09:02:05.349Z,19.87
2019-02-17T09:05:01.685Z,19.57
2019-02-17T09:08:06.538Z,19.47
2019-02-17T09:11:11.146Z,19.70
2019-02-17T09:14:15.890Z,19.57
2019-02-17T09:17:20.584Z,18.47
2019-02-17T09:20:25.469Z,19.67
2019-02-17T09:23:30.041Z,17.90
2019-02-17T09:26:34.579Z,17.77
2019-02-17T09:29:39.495Z,19.03
2019-02-17T09:32:44.345Z,16.90
2019-02-17T09:35:49.061Z,16.80
2019-02-17T09:38:53.997Z,18.20
2019-02-17T09:41:58.606Z,17.70
2019-02-17T09:45:03.458Z,18.17
2019-02-17T09:48:09.875Z,17.00
2019-02-17T09:51:14.665Z,16.97
2019-02-17T09:54:20.501Z,17.43
2019-02-17T09:57:25.334Z,17.30
2019-02-17T10:00:30.193Z,16.47
2019-02-17T10:03:34.999Z,17.27
2019-02-17T10:06:39.821Z,16.27
2019-02-17T10:09:44.773Z,16.93
2019-02-17T10:12:49.583Z,17.30
2019-02-17T10:15:54.411Z,17.00
2019-02-17T10:18:59.357Z,16.50
2019-02-17T10:22:05.285Z,16.17
2019-02-17T10:25:11.653Z,16.30
2019-02-17T10:28:16.525Z,16.13
2019-02-17T10:31:21.217Z,16.80
2019-02-17T10:34:25.839Z,15.83
2019-02-17T10:37:30.787Z,15.67
2019-02-17T10:40:35.610Z,19.30
2019-02-17T10:43:40.355Z,17.17
2019-02-17T10:46:47.071Z,17.03
2019-02-17T10:49:51.661Z,16.70
2019-02-17T10:52:56.571Z,17.43
2019-02-17T10:56:01.420Z,16.43
2019-02-17T10:59:06.130Z,16.87
2019-02-17T11:02:11.059Z,15.90
2019-02-17T11:05:15.697Z,15.73
2019-02-17T11:08:20.438Z,15.93
2019-02-17T11:11:25.263Z,16.10
2019-02-17T11:14:29.883Z,15.27
2019-02-17T11:17:34.695Z,15.30
2019-02-17T11:20:39.345Z,15.20
2019-02-17T11:23:44.260Z,15.77
2019-02-17T11:26:49.102Z,14.33
2019-02-17T11:29:53.858Z,14.50
2019-02-17T11:32:58.758Z,15.70
2019-02-17T11:36:03.483Z,14.50
2019-02-17T11:39:13.632Z,14.93
2019-02-17T11:42:18.477Z,15.20
2019-02-17T11:45:23.198Z,14.23
2019-02-17T11:48:28.028Z,14.80
2019-02-17T11:51:32.854Z,14.93
2019-02-17T11:54:37.381Z,14.67
2019-02-17T11:57:42.317Z,14.00
2019-02-17T12:00:47.143Z,14.60
2019-02-17T12:03:51.962Z,14.47
2019-02-17T12:06:56.908Z,13.67
2019-02-17T12:10:01.543Z,13.53
2019-02-17T12:13:06.262Z,14.73
2019-02-17T12:16:10.995Z,14.23
2019-02-17T12:19:15.825Z,13.20
2019-02-17T12:22:42.820Z,13.30
2019-02-17T12:26:12.491Z,12.90
2019-02-17T12:29:42.081Z,12.80
2019-02-17T12:32:46.927Z,13.60
2019-02-17T12:35:51.699Z,12.93
2019-02-17T12:38:56.672Z,12.30
2019-02-17T12:42:01.472Z,12.30
2019-02-17T12:45:06.630Z,12.40
2019-02-17T12:48:11.065Z,12.93
2019-02-17T12:51:16.097Z,12.70
2019-02-17T12:54:28.826Z,12.13
2019-02-17T12:57:27.485Z,11.60
2019-02-17T13:00:32.318Z,12.10
2019-02-17T13:03:37.142Z,12.03
2019-02-17T13:06:41.857Z,12.10
2019-02-17T13:09:46.695Z,12.10
2019-02-17T13:12:51.525Z,12.63
2019-02-17T13:15:56.457Z,11.40
2019-02-17T13:19:01.164Z,11.97
2019-02-17T13:22:05.915Z,11.90
2019-02-17T13:25:11.530Z,11.43
2019-02-17T13:28:16.399Z,11.20
2019-02-17T13:31:21.218Z,11.10
2019-02-17T13:34:25.950Z,11.80
2019-02-17T13:37:30.673Z,11.00
2019-02-17T13:40:35.623Z,12.30
2019-02-17T13:43:40.332Z,11.70
2019-02-17T13:46:45.174Z,12.03
2019-02-17T13:49:50.111Z,10.90
2019-02-17T13:52:54.735Z,11.60
2019-02-17T13:55:59.560Z,11.80
2019-02-17T13:59:04.295Z,10.87
2019-02-17T14:02:09.227Z,10.17
2019-02-17T14:05:14.120Z,10.70
2019-02-17T14:08:18.865Z,10.93
2019-02-17T14:11:23.714Z,11.20
2019-02-17T14:14:28.542Z,11.07
2019-02-17T14:17:33.422Z,10.13
2019-02-17T14:20:38.085Z,10.33
2019-02-17T14:23:42.649Z,10.80
2019-02-17T14:26:47.441Z,10.40
2019-02-17T14:29:52.225Z,10.13
2019-02-17T14:32:57.019Z,9.50
2019-02-17T14:36:01.765Z,10.20
2019-02-17T14:39:07.156Z,10.07
2019-02-17T14:42:12.050Z,10.30
2019-02-17T14:45:16.848Z,11.63
2019-02-17T14:48:21.821Z,10.60
2019-02-17T14:51:26.705Z,11.77
2019-02-17T14:54:31.346Z,10.97
2019-02-17T14:57:36.169Z,10.53
2019-02-17T15:00:41.072Z,10.47
2019-02-17T15:03:45.932Z,16.80
2019-02-17T15:06:50.887Z,11.50
2019-02-17T15:09:55.489Z,12.40
2019-02-17T15:13:00.352Z,11.10
2019-02-17T15:16:05.249Z,12.00
2019-02-17T15:19:11.098Z,11.80
2019-02-17T15:22:15.941Z,13.00
2019-02-17T15:25:20.631Z,15.27
2019-02-17T15:28:25.416Z,15.13
2019-02-17T15:31:31.008Z,16.33
2019-02-17T15:34:35.978Z,16.93
2019-02-17T15:37:40.845Z,18.00
2019-02-17T15:40:45.643Z,19.57
2019-02-17T15:43:50.813Z,20.90
2019-02-17T15:46:55.834Z,21.23
2019-02-17T15:50:00.709Z,25.20
2019-02-17T15:53:05.368Z,25.50
2019-02-17T15:56:10.315Z,25.40
2019-02-17T15:59:15.031Z,27.03
2019-02-17T16:02:19.911Z,31.07
2019-02-17T16:05:24.694Z,31.73
2019-02-17T16:08:29.448Z,31.27
2019-02-17T16:11:34.258Z,30.70
2019-02-17T16:14:39.139Z,30.60
2019-02-17T16:17:44.030Z,29.73
2019-02-17T16:20:49.028Z,31.00
2019-02-17T16:23:53.905Z,30.13
2019-02-17T16:26:58.738Z,29.47
2019-02-17T16:30:03.580Z,30.50
2019-02-17T16:33:08.276Z,29.90
2019-02-17T16:36:13.219Z,30.17
2019-02-17T16:39:18.176Z,32.47
2019-02-17T16:42:23.002Z,31.40
2019-02-17T16:45:27.712Z,29.67
2019-02-17T16:48:32.555Z,30.60
2019-02-17T16:51:37.466Z,31.10
2019-02-17T16:54:42.379Z,29.50
2019-02-17T16:57:47.222Z,28.93
2019-02-17T17:00:52.113Z,28.30
2019-02-17T17:03:56.915Z,28.20
2019-02-17T17:07:01.897Z,29.60
2019-02-17T17:10:06.667Z,30.27
2019-02-17T17:13:11.651Z,38.17
2019-02-17T17:16:16.330Z,40.80
2019-02-17T17:19:21.148Z,41.07
2019-02-17T17:22:25.885Z,40.37
2019-02-17T17:25:30.824Z,41.97
2019-02-17T17:28:35.840Z,41.27
2019-02-17T17:31:40.509Z,42.57
2019-02-17T17:34:45.298Z,42.43
2019-02-17T17:37:50.453Z,40.57
2019-02-17T17:40:55.266Z,43.90
2019-02-17T17:44:00.097Z,42.90
2019-02-17T17:47:04.738Z,43.17
2019-02-17T17:50:10.897Z,41.83
2019-02-17T17:53:15.707Z,44.33
2019-02-17T17:56:20.667Z,42.20
2019-02-17T17:59:25.477Z,40.10
2019-02-17T18:02:30.419Z,40.00
2019-02-17T18:05:35.232Z,40.33
2019-02-17T18:08:40.196Z,41.23
2019-02-17T18:11:45.002Z,38.27
2019-02-17T18:14:49.939Z,38.50
2019-02-17T18:17:55.133Z,38.90
2019-02-17T18:20:59.957Z,37.40
2019-02-17T18:24:04.751Z,38.40
2019-02-17T18:27:09.399Z,36.90
2019-02-17T18:30:16.538Z,36.23
2019-02-17T18:33:21.802Z,37.80
2019-02-17T18:36:26.567Z,35.90
2019-02-17T18:39:31.261Z,35.20
2019-02-17T18:42:36.085Z,32.80
2019-02-17T18:45:40.929Z,33.37
2019-02-17T18:48:45.768Z,33.70
2019-02-17T18:51:50.385Z,33.13
2019-02-17T18:54:55.186Z,31.93
2019-02-17T18:58:00.139Z,31.90
2019-02-17T19:01:05.054Z,31.10
2019-02-17T19:04:09.837Z,31.50
2019-02-17T19:07:14.508Z,32.10
2019-02-17T19:10:19.346Z,34.77
2019-02-17T19:13:24.281Z,31.70
2019-02-17T19:16:29.209Z,31.40
2019-02-17T19:19:34.049Z,31.80
2019-02-17T19:22:38.957Z,29.93
2019-02-17T19:25:43.826Z,29.93
2019-02-17T19:28:48.602Z,29.80
2019-02-17T19:31:53.306Z,29.37
2019-02-17T19:34:58.214Z,29.07
2019-02-17T19:38:03.059Z,28.77
2019-02-17T19:41:07.964Z,28.50
2019-02-17T19:44:14.252Z,29.33
2019-02-17T19:47:19.045Z,29.27
2019-02-17T19:50:23.974Z,27.30
2019-02-17T19:53:28.818Z,27.83
2019-02-17T19:56:33.555Z,28.07
2019-02-17T19:59:38.370Z,25.50
2019-02-17T20:06:29.281Z,25.67
2019-02-17T20:09:34.023Z,25.70
2019-02-17T20:12:38.861Z,24.93
2019-02-17T20:15:43.677Z,26.30
2019-02-17T20:18:48.416Z,25.40
2019-02-17T20:21:53.266Z,23.60
2019-02-17T20:24:57.977Z,24.90
2019-02-17T20:28:02.767Z,24.20
2019-02-17T20:31:07.638Z,23.90
2019-02-17T20:34:14.582Z,23.93
2019-02-17T20:37:18.931Z,24.57
2019-02-17T20:40:23.852Z,23.80
2019-02-17T20:43:28.777Z,23.10
2019-02-17T20:46:33.687Z,24.13
2019-02-17T20:49:38.538Z,24.83
2019-02-17T20:52:43.726Z,28.23
2019-02-17T20:55:48.464Z,33.50
2019-02-17T20:58:53.478Z,35.80
2019-02-17T21:02:02.036Z,38.30
2019-02-17T21:05:07.190Z,38.60
2019-02-17T21:08:12.045Z,39.50
2019-02-17T21:11:16.844Z,42.23
2019-02-17T21:14:21.783Z,42.67
2019-02-17T21:17:26.407Z,42.27
2019-02-17T21:20:31.855Z,44.53
2019-02-17T21:23:36.780Z,45.63
2019-02-17T21:26:43.671Z,45.80
2019-02-17T21:29:48.606Z,47.37
2019-02-17T21:32:53.469Z,48.50
2019-02-17T21:35:58.150Z,48.10
2019-02-17T21:39:04.825Z,49.03
2019-02-17T21:42:09.761Z,48.67
2019-02-17T21:45:14.517Z,46.53
2019-02-17T21:48:19.423Z,47.73
2019-02-17T21:51:24.163Z,48.47
2019-02-17T21:54:29.064Z,49.33
2019-02-17T21:57:34.039Z,54.07
2019-02-17T22:00:38.942Z,49.60
2019-02-17T22:03:43.778Z,51.07
2019-02-17T22:06:48.589Z,53.53
2019-02-17T22:09:53.453Z,50.10
2019-02-17T22:12:58.288Z,49.20
2019-02-17T22:16:02.985Z,48.70
2019-02-17T22:19:07.831Z,50.17
2019-02-17T22:22:12.469Z,48.90
2019-02-17T22:25:17.485Z,50.40
2019-02-17T22:28:22.445Z,51.53
2019-02-17T22:31:27.224Z,52.93
2019-02-17T22:34:31.874Z,54.60
2019-02-17T22:37:36.583Z,57.10
2019-02-17T22:40:41.357Z,56.23
2019-02-17T22:43:46.153Z,60.70
2019-02-17T22:46:50.900Z,62.90
2019-02-17T22:49:55.711Z,63.43
2019-02-17T22:53:00.627Z,60.03
2019-02-17T22:56:05.362Z,62.43
2019-02-17T22:59:10.220Z,60.23
2019-02-17T23:02:15.129Z,60.57
2019-02-17T23:05:19.892Z,65.93
2019-02-17T23:08:24.598Z,64.00
2019-02-17T23:11:29.421Z,63.00
2019-02-17T23:14:34.395Z,63.73
2019-02-17T23:17:39.286Z,64.30
2019-02-17T23:20:45.292Z,66.03
2019-02-17T23:23:50.061Z,68.83
2019-02-17T23:26:54.815Z,69.70
2019-02-17T23:29:59.623Z,73.70
2019-02-17T23:33:04.382Z,78.10
2019-02-17T23:36:09.185Z,79.23
2019-02-17T23:39:13.824Z,82.47
2019-02-17T23:42:18.541Z,88.00
2019-02-17T23:45:23.418Z,87.63
2019-02-17T23:48:28.198Z,85.83
2019-02-17T23:51:32.928Z,90.60
2019-02-17T23:54:37.548Z,91.37
2019-02-17T23:57:42.226Z,92.30
